sensor_id;sensor_type;location;lat;lon;timestamp;P1;durP1;ratioP1;P2;durP2;ratioP2
41141;SDS011;63666;52.284;20.890;2024-03-25T00:01:00;5.50;;;3.40;;
41141;SDS011;63666;52.284;20.890;2024-03-25T00:02:56;5.60;;;3.40;;
41141;SDS011;63666;52.284;20.890;2024-03-25T00:04:45;5.20;;;3.20;;
41141;SDS011;63666;52.284;20.890;2024-03-25T00:06:30;5.30;;;3.30;;
41141;SDS011;63666;52.284;20.890;2024-03-25T00:08:16;5.30;;;3.30;;
41141;SDS011;63666;52.284;20.890;2024-03-25T00:10:06;5.40;;;3.00;;
41141;SDS011;63666;52.284;20.890;2024-03-25T00:11:51;5.20;;;3.40;;
41141;SDS011;63666;52.284;20.890;2024-03-25T00:13:36;5.40;;;3.10;;
41141;SDS011;63666;52.284;20.890;2024-03-25T00:15:23;5.00;;;3.10;;
41141;SDS011;63666;52.284;20.890;2024-03-25T00:17:10;5.30;;;3.00;;
41141;SDS011;63666;52.284;20.890;2024-03-25T00:18:56;4.70;;;3.20;;
41141;SDS011;63666;52.284;20.890;2024-03-25T00:20:43;5.00;;;3.10;;
41141;SDS011;63666;52.284;20.890;2024-03-25T00:22:32;5.50;;;3.30;;
41141;SDS011;63666;52.284;20.890;2024-03-25T00:24:19;5.50;;;3.30;;
41141;SDS011;63666;52.284;20.890;2024-03-25T00:26:04;4.80;;;3.00;;
41141;SDS011;63666;52.284;20.890;2024-03-25T00:27:49;4.90;;;2.90;;
41141;SDS011;63666;52.284;20.890;2024-03-25T00:29:39;5.20;;;3.20;;
41141;SDS011;63666;52.284;20.890;2024-03-25T00:31:26;5.20;;;3.10;;
41141;SDS011;63666;52.284;20.890;2024-03-25T00:33:14;4.80;;;2.90;;
41141;SDS011;63666;52.284;20.890;2024-03-25T00:34:59;5.20;;;3.00;;
41141;SDS011;63666;52.284;20.890;2024-03-25T00:36:46;5.10;;;3.00;;
41141;SDS011;63666;52.284;20.890;2024-03-25T00:38:33;5.20;;;3.00;;
41141;SDS011;63666;52.284;20.890;2024-03-25T00:40:21;4.70;;;2.90;;
41141;SDS011;63666;52.284;20.890;2024-03-25T00:42:07;5.80;;;3.10;;
41141;SDS011;63666;52.284;20.890;2024-03-25T00:43:52;4.80;;;3.00;;
41141;SDS011;63666;52.284;20.890;2024-03-25T00:45:44;4.80;;;3.00;;
41141;SDS011;63666;52.284;20.890;2024-03-25T00:47:29;5.00;;;2.90;;
41141;SDS011;63666;52.284;20.890;2024-03-25T00:49:17;5.40;;;3.10;;
41141;SDS011;63666;52.284;20.890;2024-03-25T00:51:09;5.10;;;2.90;;
41141;SDS011;63666;52.284;20.890;2024-03-25T00:52:54;4.50;;;2.70;;
41141;SDS011;63666;52.284;20.890;2024-03-25T00:54:42;5.10;;;3.00;;
41141;SDS011;63666;52.284;20.890;2024-03-25T00:56:32;5.30;;;3.10;;
41141;SDS011;63666;52.284;20.890;2024-03-25T00:58:20;4.60;;;2.80;;
41141;SDS011;63666;52.284;20.890;2024-03-25T01:00:06;4.80;;;3.00;;
41141;SDS011;63666;52.284;20.890;2024-03-25T01:01:52;5.10;;;3.10;;
41141;SDS011;63666;52.284;20.890;2024-03-25T01:03:36;4.40;;;2.70;;
41141;SDS011;63666;52.284;20.890;2024-03-25T01:05:21;5.50;;;2.80;;
41141;SDS011;63666;52.284;20.890;2024-03-25T01:07:06;4.70;;;2.90;;
41141;SDS011;63666;52.284;20.890;2024-03-25T01:08:52;4.60;;;2.80;;
41141;SDS011;63666;52.284;20.890;2024-03-25T01:10:37;5.20;;;3.10;;
41141;SDS011;63666;52.284;20.890;2024-03-25T01:12:21;4.90;;;2.80;;
41141;SDS011;63666;52.284;20.890;2024-03-25T01:14:06;4.70;;;2.80;;
41141;SDS011;63666;52.284;20.890;2024-03-25T01:15:51;4.10;;;2.60;;
41141;SDS011;63666;52.284;20.890;2024-03-25T01:17:35;4.90;;;3.10;;
41141;SDS011;63666;52.284;20.890;2024-03-25T01:19:22;4.70;;;2.70;;
41141;SDS011;63666;52.284;20.890;2024-03-25T01:21:09;4.70;;;2.70;;
41141;SDS011;63666;52.284;20.890;2024-03-25T01:22:56;4.80;;;3.10;;
41141;SDS011;63666;52.284;20.890;2024-03-25T01:24:44;5.40;;;2.90;;
41141;SDS011;63666;52.284;20.890;2024-03-25T01:26:29;4.90;;;2.80;;
41141;SDS011;63666;52.284;20.890;2024-03-25T01:28:17;4.70;;;2.90;;
41141;SDS011;63666;52.284;20.890;2024-03-25T01:30:09;5.10;;;3.20;;
41141;SDS011;63666;52.284;20.890;2024-03-25T01:31:55;5.60;;;3.10;;
41141;SDS011;63666;52.284;20.890;2024-03-25T01:33:41;4.90;;;2.90;;
41141;SDS011;63666;52.284;20.890;2024-03-25T01:35:25;5.10;;;2.90;;
41141;SDS011;63666;52.284;20.890;2024-03-25T01:37:10;4.40;;;2.70;;
41141;SDS011;63666;52.284;20.890;2024-03-25T01:38:54;5.00;;;3.10;;
41141;SDS011;63666;52.284;20.890;2024-03-25T01:40:44;5.50;;;3.10;;
41141;SDS011;63666;52.284;20.890;2024-03-25T01:42:29;5.40;;;3.10;;
41141;SDS011;63666;52.284;20.890;2024-03-25T01:44:14;5.10;;;3.00;;
41141;SDS011;63666;52.284;20.890;2024-03-25T01:46:07;4.60;;;2.60;;
41141;SDS011;63666;52.284;20.890;2024-03-25T01:47:55;5.00;;;3.00;;
41141;SDS011;63666;52.284;20.890;2024-03-25T01:49:41;4.90;;;2.90;;
41141;SDS011;63666;52.284;20.890;2024-03-25T01:51:26;5.00;;;2.70;;
41141;SDS011;63666;52.284;20.890;2024-03-25T01:53:20;4.80;;;2.90;;
41141;SDS011;63666;52.284;20.890;2024-03-25T01:55:10;5.00;;;3.00;;
41141;SDS011;63666;52.284;20.890;2024-03-25T01:56:58;4.80;;;2.80;;
41141;SDS011;63666;52.284;20.890;2024-03-25T01:58:42;4.90;;;2.80;;
41141;SDS011;63666;52.284;20.890;2024-03-25T02:00:28;5.10;;;3.00;;
41141;SDS011;63666;52.284;20.890;2024-03-25T02:02:13;4.80;;;2.90;;
41141;SDS011;63666;52.284;20.890;2024-03-25T02:03:58;5.00;;;3.00;;
41141;SDS011;63666;52.284;20.890;2024-03-25T02:05:45;4.80;;;2.90;;
41141;SDS011;63666;52.284;20.890;2024-03-25T02:07:32;5.10;;;2.80;;
41141;SDS011;63666;52.284;20.890;2024-03-25T02:09:17;4.90;;;3.00;;
41141;SDS011;63666;52.284;20.890;2024-03-25T02:11:05;5.00;;;3.10;;
41141;SDS011;63666;52.284;20.890;2024-03-25T02:12:50;5.30;;;2.80;;
41141;SDS011;63666;52.284;20.890;2024-03-25T02:14:35;4.70;;;2.90;;
41141;SDS011;63666;52.284;20.890;2024-03-25T02:16:21;4.80;;;3.00;;
41141;SDS011;63666;52.284;20.890;2024-03-25T02:18:08;5.20;;;3.10;;
41141;SDS011;63666;52.284;20.890;2024-03-25T02:19:53;4.70;;;2.90;;
41141;SDS011;63666;52.284;20.890;2024-03-25T02:21:43;5.00;;;3.10;;
41141;SDS011;63666;52.284;20.890;2024-03-25T02:23:30;5.90;;;3.20;;
41141;SDS011;63666;52.284;20.890;2024-03-25T02:25:19;4.90;;;3.10;;
41141;SDS011;63666;52.284;20.890;2024-03-25T02:27:05;5.20;;;3.20;;
41141;SDS011;63666;52.284;20.890;2024-03-25T02:28:52;5.10;;;3.20;;
41141;SDS011;63666;52.284;20.890;2024-03-25T02:30:36;5.00;;;2.90;;
41141;SDS011;63666;52.284;20.890;2024-03-25T02:32:22;4.90;;;2.90;;
41141;SDS011;63666;52.284;20.890;2024-03-25T02:34:07;4.60;;;3.00;;
41141;SDS011;63666;52.284;20.890;2024-03-25T02:35:51;5.10;;;3.00;;
41141;SDS011;63666;52.284;20.890;2024-03-25T02:37:36;5.00;;;3.00;;
41141;SDS011;63666;52.284;20.890;2024-03-25T02:39:21;5.10;;;3.20;;
41141;SDS011;63666;52.284;20.890;2024-03-25T02:41:06;5.40;;;3.40;;
41141;SDS011;63666;52.284;20.890;2024-03-25T02:42:51;5.40;;;3.20;;
41141;SDS011;63666;52.284;20.890;2024-03-25T02:44:36;5.00;;;3.10;;
41141;SDS011;63666;52.284;20.890;2024-03-25T02:46:23;5.90;;;3.20;;
41141;SDS011;63666;52.284;20.890;2024-03-25T02:48:10;5.50;;;3.50;;
41141;SDS011;63666;52.284;20.890;2024-03-25T02:49:57;4.80;;;3.10;;
41141;SDS011;63666;52.284;20.890;2024-03-25T02:51:42;5.40;;;3.40;;
41141;SDS011;63666;52.284;20.890;2024-03-25T02:53:30;5.30;;;3.20;;
41141;SDS011;63666;52.284;20.890;2024-03-25T02:55:17;5.70;;;3.30;;
41141;SDS011;63666;52.284;20.890;2024-03-25T02:57:02;5.70;;;3.30;;
41141;SDS011;63666;52.284;20.890;2024-03-25T02:58:48;5.40;;;3.40;;
41141;SDS011;63666;52.284;20.890;2024-03-25T03:00:33;6.40;;;3.30;;
41141;SDS011;63666;52.284;20.890;2024-03-25T03:02:17;5.30;;;3.30;;
41141;SDS011;63666;52.284;20.890;2024-03-25T03:04:06;5.30;;;3.30;;
41141;SDS011;63666;52.284;20.890;2024-03-25T03:05:52;5.50;;;3.10;;
41141;SDS011;63666;52.284;20.890;2024-03-25T03:07:39;5.80;;;3.50;;
41141;SDS011;63666;52.284;20.890;2024-03-25T03:09:26;5.40;;;3.50;;
41141;SDS011;63666;52.284;20.890;2024-03-25T03:11:11;5.70;;;3.20;;
41141;SDS011;63666;52.284;20.890;2024-03-25T03:12:55;5.50;;;3.30;;
41141;SDS011;63666;52.284;20.890;2024-03-25T03:14:40;5.50;;;3.40;;
41141;SDS011;63666;52.284;20.890;2024-03-25T03:16:26;5.40;;;3.40;;
41141;SDS011;63666;52.284;20.890;2024-03-25T03:18:14;6.10;;;3.40;;
41141;SDS011;63666;52.284;20.890;2024-03-25T03:19:59;5.60;;;3.70;;
41141;SDS011;63666;52.284;20.890;2024-03-25T03:21:44;5.90;;;3.20;;
41141;SDS011;63666;52.284;20.890;2024-03-25T03:23:33;5.80;;;3.60;;
41141;SDS011;63666;52.284;20.890;2024-03-25T03:25:20;5.70;;;3.30;;
41141;SDS011;63666;52.284;20.890;2024-03-25T03:27:06;5.60;;;3.80;;
41141;SDS011;63666;52.284;20.890;2024-03-25T03:28:56;6.70;;;3.70;;
41141;SDS011;63666;52.284;20.890;2024-03-25T03:30:42;6.10;;;3.70;;
41141;SDS011;63666;52.284;20.890;2024-03-25T03:32:31;5.30;;;3.40;;
41141;SDS011;63666;52.284;20.890;2024-03-25T03:34:16;5.50;;;3.50;;
41141;SDS011;63666;52.284;20.890;2024-03-25T03:36:01;5.60;;;3.70;;
41141;SDS011;63666;52.284;20.890;2024-03-25T03:37:49;5.60;;;3.60;;
41141;SDS011;63666;52.284;20.890;2024-03-25T03:39:36;5.40;;;3.20;;
41141;SDS011;63666;52.284;20.890;2024-03-25T03:41:21;5.60;;;3.50;;
41141;SDS011;63666;52.284;20.890;2024-03-25T03:43:06;6.50;;;3.50;;
41141;SDS011;63666;52.284;20.890;2024-03-25T03:44:53;6.00;;;3.70;;
41141;SDS011;63666;52.284;20.890;2024-03-25T03:46:38;6.10;;;3.70;;
41141;SDS011;63666;52.284;20.890;2024-03-25T03:48:22;6.40;;;3.70;;
41141;SDS011;63666;52.284;20.890;2024-03-25T03:50:09;6.00;;;3.60;;
41141;SDS011;63666;52.284;20.890;2024-03-25T03:51:54;5.80;;;3.50;;
41141;SDS011;63666;52.284;20.890;2024-03-25T03:53:39;5.40;;;3.60;;
41141;SDS011;63666;52.284;20.890;2024-03-25T03:55:24;6.30;;;3.70;;
41141;SDS011;63666;52.284;20.890;2024-03-25T03:57:08;6.80;;;4.00;;
41141;SDS011;63666;52.284;20.890;2024-03-25T03:58:53;5.90;;;3.90;;
41141;SDS011;63666;52.284;20.890;2024-03-25T04:00:37;6.00;;;3.70;;
41141;SDS011;63666;52.284;20.890;2024-03-25T04:02:29;5.90;;;3.90;;
41141;SDS011;63666;52.284;20.890;2024-03-25T04:04:16;6.70;;;3.70;;
41141;SDS011;63666;52.284;20.890;2024-03-25T04:06:11;6.10;;;3.90;;
41141;SDS011;63666;52.284;20.890;2024-03-25T04:07:56;5.70;;;3.70;;
41141;SDS011;63666;52.284;20.890;2024-03-25T04:09:41;6.30;;;3.80;;
41141;SDS011;63666;52.284;20.890;2024-03-25T04:11:31;6.10;;;3.80;;
41141;SDS011;63666;52.284;20.890;2024-03-25T04:13:18;5.70;;;3.60;;
41141;SDS011;63666;52.284;20.890;2024-03-25T04:15:08;5.90;;;3.70;;
41141;SDS011;63666;52.284;20.890;2024-03-25T04:16:59;6.50;;;3.80;;
41141;SDS011;63666;52.284;20.890;2024-03-25T04:18:44;6.40;;;3.80;;
41141;SDS011;63666;52.284;20.890;2024-03-25T04:20:30;6.00;;;3.90;;
41141;SDS011;63666;52.284;20.890;2024-03-25T04:22:20;6.00;;;3.70;;
41141;SDS011;63666;52.284;20.890;2024-03-25T04:24:10;5.70;;;3.60;;
41141;SDS011;63666;52.284;20.890;2024-03-25T04:26:01;6.00;;;3.80;;
41141;SDS011;63666;52.284;20.890;2024-03-25T04:27:48;6.10;;;3.80;;
41141;SDS011;63666;52.284;20.890;2024-03-25T04:29:35;6.30;;;4.10;;
41141;SDS011;63666;52.284;20.890;2024-03-25T04:31:20;5.90;;;4.00;;
41141;SDS011;63666;52.284;20.890;2024-03-25T04:33:05;6.40;;;4.00;;
41141;SDS011;63666;52.284;20.890;2024-03-25T04:34:50;6.50;;;4.50;;
41141;SDS011;63666;52.284;20.890;2024-03-25T04:36:36;7.20;;;4.00;;
41141;SDS011;63666;52.284;20.890;2024-03-25T04:38:20;6.90;;;4.30;;
41141;SDS011;63666;52.284;20.890;2024-03-25T04:40:08;6.00;;;4.10;;
41141;SDS011;63666;52.284;20.890;2024-03-25T04:41:56;6.10;;;4.00;;
41141;SDS011;63666;52.284;20.890;2024-03-25T04:43:43;6.00;;;4.10;;
41141;SDS011;63666;52.284;20.890;2024-03-25T04:45:31;6.50;;;4.40;;
41141;SDS011;63666;52.284;20.890;2024-03-25T04:47:18;6.30;;;4.30;;
41141;SDS011;63666;52.284;20.890;2024-03-25T04:49:03;6.30;;;4.20;;
41141;SDS011;63666;52.284;20.890;2024-03-25T04:50:47;6.30;;;4.40;;
41141;SDS011;63666;52.284;20.890;2024-03-25T04:52:32;6.60;;;4.30;;
41141;SDS011;63666;52.284;20.890;2024-03-25T04:54:19;6.50;;;4.10;;
41141;SDS011;63666;52.284;20.890;2024-03-25T04:56:05;6.50;;;4.60;;
41141;SDS011;63666;52.284;20.890;2024-03-25T04:57:50;6.50;;;4.20;;
41141;SDS011;63666;52.284;20.890;2024-03-25T04:59:35;6.90;;;4.40;;
41141;SDS011;63666;52.284;20.890;2024-03-25T05:01:19;6.60;;;4.40;;
41141;SDS011;63666;52.284;20.890;2024-03-25T05:03:05;6.70;;;4.20;;
41141;SDS011;63666;52.284;20.890;2024-03-25T05:04:50;7.40;;;4.30;;
41141;SDS011;63666;52.284;20.890;2024-03-25T05:06:35;6.20;;;4.30;;
41141;SDS011;63666;52.284;20.890;2024-03-25T05:08:20;6.30;;;4.10;;
41141;SDS011;63666;52.284;20.890;2024-03-25T05:10:08;7.10;;;4.20;;
41141;SDS011;63666;52.284;20.890;2024-03-25T05:11:53;6.70;;;4.00;;
41141;SDS011;63666;52.284;20.890;2024-03-25T05:13:38;6.70;;;4.40;;
41141;SDS011;63666;52.284;20.890;2024-03-25T05:15:22;6.70;;;4.30;;
41141;SDS011;63666;52.284;20.890;2024-03-25T05:17:07;6.60;;;4.00;;
41141;SDS011;63666;52.284;20.890;2024-03-25T05:18:56;6.20;;;4.20;;
41141;SDS011;63666;52.284;20.890;2024-03-25T05:20:43;6.40;;;4.30;;
41141;SDS011;63666;52.284;20.890;2024-03-25T05:22:27;6.30;;;4.20;;
41141;SDS011;63666;52.284;20.890;2024-03-25T05:24:11;6.40;;;4.40;;
41141;SDS011;63666;52.284;20.890;2024-03-25T05:25:56;6.60;;;4.10;;
41141;SDS011;63666;52.284;20.890;2024-03-25T05:27:41;6.80;;;4.20;;
41141;SDS011;63666;52.284;20.890;2024-03-25T05:29:25;6.80;;;4.10;;
41141;SDS011;63666;52.284;20.890;2024-03-25T05:31:10;5.70;;;4.00;;
41141;SDS011;63666;52.284;20.890;2024-03-25T05:32:57;6.50;;;4.30;;
41141;SDS011;63666;52.284;20.890;2024-03-25T05:34:44;6.60;;;3.90;;
41141;SDS011;63666;52.284;20.890;2024-03-25T05:36:34;6.80;;;4.40;;
41141;SDS011;63666;52.284;20.890;2024-03-25T05:38:18;6.50;;;4.20;;
41141;SDS011;63666;52.284;20.890;2024-03-25T05:40:08;6.50;;;4.00;;
41141;SDS011;63666;52.284;20.890;2024-03-25T05:41:53;6.80;;;4.20;;
41141;SDS011;63666;52.284;20.890;2024-03-25T05:43:38;6.70;;;4.00;;
41141;SDS011;63666;52.284;20.890;2024-03-25T05:45:26;5.80;;;4.00;;
41141;SDS011;63666;52.284;20.890;2024-03-25T05:47:12;6.60;;;4.10;;
41141;SDS011;63666;52.284;20.890;2024-03-25T05:48:58;6.20;;;3.90;;
41141;SDS011;63666;52.284;20.890;2024-03-25T05:50:48;6.00;;;4.30;;
41141;SDS011;63666;52.284;20.890;2024-03-25T05:52:42;6.50;;;3.90;;
41141;SDS011;63666;52.284;20.890;2024-03-25T05:54:31;6.50;;;3.90;;
41141;SDS011;63666;52.284;20.890;2024-03-25T05:56:18;5.90;;;4.10;;
41141;SDS011;63666;52.284;20.890;2024-03-25T05:58:07;5.90;;;4.00;;
41141;SDS011;63666;52.284;20.890;2024-03-25T05:59:52;6.90;;;4.20;;
41141;SDS011;63666;52.284;20.890;2024-03-25T06:01:40;5.70;;;3.70;;
41141;SDS011;63666;52.284;20.890;2024-03-25T06:03:29;5.70;;;3.90;;
41141;SDS011;63666;52.284;20.890;2024-03-25T06:05:17;6.40;;;4.00;;
41141;SDS011;63666;52.284;20.890;2024-03-25T06:07:04;6.80;;;4.20;;
41141;SDS011;63666;52.284;20.890;2024-03-25T06:08:50;6.60;;;4.20;;
41141;SDS011;63666;52.284;20.890;2024-03-25T06:10:37;6.20;;;4.30;;
41141;SDS011;63666;52.284;20.890;2024-03-25T06:12:24;5.80;;;3.90;;
41141;SDS011;63666;52.284;20.890;2024-03-25T06:14:11;6.20;;;4.10;;
41141;SDS011;63666;52.284;20.890;2024-03-25T06:15:56;6.10;;;4.00;;
41141;SDS011;63666;52.284;20.890;2024-03-25T06:17:44;5.50;;;3.80;;
41141;SDS011;63666;52.284;20.890;2024-03-25T06:19:31;6.20;;;4.00;;
41141;SDS011;63666;52.284;20.890;2024-03-25T06:21:16;6.60;;;4.40;;
41141;SDS011;63666;52.284;20.890;2024-03-25T06:23:03;6.60;;;4.20;;
41141;SDS011;63666;52.284;20.890;2024-03-25T06:24:53;7.00;;;4.20;;
41141;SDS011;63666;52.284;20.890;2024-03-25T06:26:38;6.60;;;4.00;;
41141;SDS011;63666;52.284;20.890;2024-03-25T06:28:25;7.30;;;4.10;;
41141;SDS011;63666;52.284;20.890;2024-03-25T06:30:14;5.80;;;3.90;;
41141;SDS011;63666;52.284;20.890;2024-03-25T06:34:16;6.50;;;3.90;;
41141;SDS011;63666;52.284;20.890;2024-03-25T06:36:04;6.30;;;4.10;;
41141;SDS011;63666;52.284;20.890;2024-03-25T06:37:49;7.20;;;4.20;;
41141;SDS011;63666;52.284;20.890;2024-03-25T06:39:33;6.80;;;4.30;;
41141;SDS011;63666;52.284;20.890;2024-03-25T06:41:18;6.00;;;4.00;;
41141;SDS011;63666;52.284;20.890;2024-03-25T06:43:06;6.20;;;4.00;;
41141;SDS011;63666;52.284;20.890;2024-03-25T06:44:53;6.30;;;3.90;;
41141;SDS011;63666;52.284;20.890;2024-03-25T06:46:42;6.10;;;4.10;;
41141;SDS011;63666;52.284;20.890;2024-03-25T06:48:32;6.20;;;4.00;;
41141;SDS011;63666;52.284;20.890;2024-03-25T06:50:18;6.40;;;3.70;;
41141;SDS011;63666;52.284;20.890;2024-03-25T06:52:02;6.20;;;3.90;;
41141;SDS011;63666;52.284;20.890;2024-03-25T06:53:50;6.00;;;3.90;;
41141;SDS011;63666;52.284;20.890;2024-03-25T06:55:39;6.90;;;3.90;;
41141;SDS011;63666;52.284;20.890;2024-03-25T06:57:24;6.00;;;4.00;;
41141;SDS011;63666;52.284;20.890;2024-03-25T06:59:12;6.30;;;3.90;;
41141;SDS011;63666;52.284;20.890;2024-03-25T07:01:07;6.40;;;4.00;;
41141;SDS011;63666;52.284;20.890;2024-03-25T07:02:56;6.60;;;4.00;;
41141;SDS011;63666;52.284;20.890;2024-03-25T07:04:40;6.20;;;3.90;;
41141;SDS011;63666;52.284;20.890;2024-03-25T07:06:25;7.00;;;4.10;;
41141;SDS011;63666;52.284;20.890;2024-03-25T07:08:12;5.90;;;4.00;;
41141;SDS011;63666;52.284;20.890;2024-03-25T07:09:57;6.50;;;3.90;;
41141;SDS011;63666;52.284;20.890;2024-03-25T07:11:41;6.60;;;4.20;;
41141;SDS011;63666;52.284;20.890;2024-03-25T07:13:31;6.30;;;4.00;;
41141;SDS011;63666;52.284;20.890;2024-03-25T07:15:15;5.70;;;3.90;;
41141;SDS011;63666;52.284;20.890;2024-03-25T07:17:03;6.10;;;4.10;;
41141;SDS011;63666;52.284;20.890;2024-03-25T07:18:48;5.50;;;3.50;;
41141;SDS011;63666;52.284;20.890;2024-03-25T07:20:32;6.20;;;4.00;;
41141;SDS011;63666;52.284;20.890;2024-03-25T07:22:17;5.80;;;3.60;;
41141;SDS011;63666;52.284;20.890;2024-03-25T07:24:06;6.10;;;4.10;;
41141;SDS011;63666;52.284;20.890;2024-03-25T07:25:51;6.60;;;3.90;;
41141;SDS011;63666;52.284;20.890;2024-03-25T07:27:35;5.40;;;3.60;;
41141;SDS011;63666;52.284;20.890;2024-03-25T07:29:19;5.80;;;3.80;;
41141;SDS011;63666;52.284;20.890;2024-03-25T07:31:12;6.60;;;3.90;;
41141;SDS011;63666;52.284;20.890;2024-03-25T07:33:01;5.70;;;3.70;;
41141;SDS011;63666;52.284;20.890;2024-03-25T07:34:47;5.80;;;3.70;;
41141;SDS011;63666;52.284;20.890;2024-03-25T07:36:36;6.60;;;4.10;;
41141;SDS011;63666;52.284;20.890;2024-03-25T07:38:22;6.00;;;3.90;;
41141;SDS011;63666;52.284;20.890;2024-03-25T07:40:10;6.40;;;4.00;;
41141;SDS011;63666;52.284;20.890;2024-03-25T07:41:59;6.10;;;3.70;;
41141;SDS011;63666;52.284;20.890;2024-03-25T07:43:46;6.10;;;4.00;;
41141;SDS011;63666;52.284;20.890;2024-03-25T07:45:33;6.50;;;4.00;;
41141;SDS011;63666;52.284;20.890;2024-03-25T07:47:21;6.60;;;4.10;;
41141;SDS011;63666;52.284;20.890;2024-03-25T07:49:10;5.80;;;3.80;;
41141;SDS011;63666;52.284;20.890;2024-03-25T07:50:55;6.00;;;3.70;;
41141;SDS011;63666;52.284;20.890;2024-03-25T07:52:39;6.50;;;3.90;;
41141;SDS011;63666;52.284;20.890;2024-03-25T07:54:27;6.50;;;4.00;;
41141;SDS011;63666;52.284;20.890;2024-03-25T07:56:15;6.70;;;4.00;;
41141;SDS011;63666;52.284;20.890;2024-03-25T07:58:00;7.00;;;3.90;;
41141;SDS011;63666;52.284;20.890;2024-03-25T07:59:47;6.60;;;3.80;;
41141;SDS011;63666;52.284;20.890;2024-03-25T08:01:34;7.40;;;4.10;;
41141;SDS011;63666;52.284;20.890;2024-03-25T08:03:22;6.50;;;4.10;;
41141;SDS011;63666;52.284;20.890;2024-03-25T08:05:09;7.10;;;4.00;;
41141;SDS011;63666;52.284;20.890;2024-03-25T08:06:53;7.60;;;3.90;;
41141;SDS011;63666;52.284;20.890;2024-03-25T08:08:38;7.20;;;3.80;;
41141;SDS011;63666;52.284;20.890;2024-03-25T08:10:26;6.20;;;3.80;;
41141;SDS011;63666;52.284;20.890;2024-03-25T08:12:13;7.00;;;4.00;;
41141;SDS011;63666;52.284;20.890;2024-03-25T08:13:57;6.40;;;3.80;;
41141;SDS011;63666;52.284;20.890;2024-03-25T08:15:42;6.80;;;3.90;;
41141;SDS011;63666;52.284;20.890;2024-03-25T08:17:26;6.10;;;3.80;;
41141;SDS011;63666;52.284;20.890;2024-03-25T08:19:11;6.70;;;3.90;;
41141;SDS011;63666;52.284;20.890;2024-03-25T08:20:56;7.80;;;4.20;;
41141;SDS011;63666;52.284;20.890;2024-03-25T08:22:43;6.70;;;4.00;;
41141;SDS011;63666;52.284;20.890;2024-03-25T08:24:27;7.20;;;3.80;;
41141;SDS011;63666;52.284;20.890;2024-03-25T08:26:12;6.40;;;3.70;;
41141;SDS011;63666;52.284;20.890;2024-03-25T08:27:56;6.10;;;3.70;;
41141;SDS011;63666;52.284;20.890;2024-03-25T08:29:41;7.60;;;4.00;;
41141;SDS011;63666;52.284;20.890;2024-03-25T08:31:25;6.30;;;3.90;;
41141;SDS011;63666;52.284;20.890;2024-03-25T08:33:09;6.10;;;3.80;;
41141;SDS011;63666;52.284;20.890;2024-03-25T08:34:53;6.10;;;3.90;;
41141;SDS011;63666;52.284;20.890;2024-03-25T08:36:38;7.10;;;3.90;;
41141;SDS011;63666;52.284;20.890;2024-03-25T08:38:22;6.70;;;3.70;;
41141;SDS011;63666;52.284;20.890;2024-03-25T08:40:09;6.20;;;3.80;;
41141;SDS011;63666;52.284;20.890;2024-03-25T08:41:54;6.00;;;3.90;;
41141;SDS011;63666;52.284;20.890;2024-03-25T08:43:38;6.70;;;3.80;;
41141;SDS011;63666;52.284;20.890;2024-03-25T08:45:22;6.70;;;3.50;;
41141;SDS011;63666;52.284;20.890;2024-03-25T08:47:07;5.90;;;3.80;;
41141;SDS011;63666;52.284;20.890;2024-03-25T08:48:51;6.30;;;3.70;;
41141;SDS011;63666;52.284;20.890;2024-03-25T08:50:38;6.20;;;3.40;;
41141;SDS011;63666;52.284;20.890;2024-03-25T08:52:24;7.90;;;3.70;;
41141;SDS011;63666;52.284;20.890;2024-03-25T08:54:09;6.70;;;3.50;;
41141;SDS011;63666;52.284;20.890;2024-03-25T08:55:53;7.00;;;3.40;;
41141;SDS011;63666;52.284;20.890;2024-03-25T08:57:38;6.70;;;3.30;;
41141;SDS011;63666;52.284;20.890;2024-03-25T08:59:22;6.40;;;3.30;;
41141;SDS011;63666;52.284;20.890;2024-03-25T09:01:06;5.90;;;3.40;;
41141;SDS011;63666;52.284;20.890;2024-03-25T09:02:54;6.70;;;3.70;;
41141;SDS011;63666;52.284;20.890;2024-03-25T09:04:39;7.40;;;3.60;;
41141;SDS011;63666;52.284;20.890;2024-03-25T09:06:23;8.70;;;3.80;;
41141;SDS011;63666;52.284;20.890;2024-03-25T09:08:08;9.20;;;3.60;;
41141;SDS011;63666;52.284;20.890;2024-03-25T09:09:57;6.00;;;3.50;;
41141;SDS011;63666;52.284;20.890;2024-03-25T09:11:59;6.40;;;3.40;;
41141;SDS011;63666;52.284;20.890;2024-03-25T09:13:43;7.50;;;3.60;;
41141;SDS011;63666;52.284;20.890;2024-03-25T09:15:31;6.00;;;3.50;;
41141;SDS011;63666;52.284;20.890;2024-03-25T09:17:15;6.30;;;3.50;;
41141;SDS011;63666;52.284;20.890;2024-03-25T09:19:04;6.30;;;3.40;;
41141;SDS011;63666;52.284;20.890;2024-03-25T09:20:51;6.00;;;3.40;;
41141;SDS011;63666;52.284;20.890;2024-03-25T09:22:37;7.00;;;3.10;;
41141;SDS011;63666;52.284;20.890;2024-03-25T09:24:21;6.20;;;3.10;;
41141;SDS011;63666;52.284;20.890;2024-03-25T09:26:06;6.50;;;3.20;;
41141;SDS011;63666;52.284;20.890;2024-03-25T09:27:53;6.30;;;3.40;;
41141;SDS011;63666;52.284;20.890;2024-03-25T09:29:37;6.20;;;3.50;;
41141;SDS011;63666;52.284;20.890;2024-03-25T09:31:24;6.50;;;3.20;;
41141;SDS011;63666;52.284;20.890;2024-03-25T09:33:08;5.60;;;3.50;;
41141;SDS011;63666;52.284;20.890;2024-03-25T09:34:52;6.10;;;3.20;;
41141;SDS011;63666;52.284;20.890;2024-03-25T09:36:38;6.40;;;3.40;;
41141;SDS011;63666;52.284;20.890;2024-03-25T09:38:24;7.60;;;3.40;;
41141;SDS011;63666;52.284;20.890;2024-03-25T09:40:11;5.70;;;3.10;;
41141;SDS011;63666;52.284;20.890;2024-03-25T09:41:57;6.50;;;3.10;;
41141;SDS011;63666;52.284;20.890;2024-03-25T09:43:47;5.20;;;3.40;;
41141;SDS011;63666;52.284;20.890;2024-03-25T09:45:34;7.10;;;3.30;;
41141;SDS011;63666;52.284;20.890;2024-03-25T09:47:20;5.40;;;3.10;;
41141;SDS011;63666;52.284;20.890;2024-03-25T09:49:05;6.30;;;3.30;;
41141;SDS011;63666;52.284;20.890;2024-03-25T09:50:51;6.30;;;3.10;;
41141;SDS011;63666;52.284;20.890;2024-03-25T09:52:39;6.60;;;3.20;;
41141;SDS011;63666;52.284;20.890;2024-03-25T09:54:23;5.50;;;3.30;;
41141;SDS011;63666;52.284;20.890;2024-03-25T09:56:10;5.70;;;3.40;;
41141;SDS011;63666;52.284;20.890;2024-03-25T09:57:59;6.10;;;3.10;;
41141;SDS011;63666;52.284;20.890;2024-03-25T09:59:44;5.50;;;2.80;;
41141;SDS011;63666;52.284;20.890;2024-03-25T10:01:28;6.20;;;3.20;;
41141;SDS011;63666;52.284;20.890;2024-03-25T10:03:15;5.30;;;3.10;;
41141;SDS011;63666;52.284;20.890;2024-03-25T10:05:00;5.60;;;2.90;;
41141;SDS011;63666;52.284;20.890;2024-03-25T10:06:45;5.20;;;3.10;;
41141;SDS011;63666;52.284;20.890;2024-03-25T10:08:32;5.40;;;3.10;;
41141;SDS011;63666;52.284;20.890;2024-03-25T10:10:20;5.90;;;3.40;;
41141;SDS011;63666;52.284;20.890;2024-03-25T10:12:06;5.50;;;3.10;;
41141;SDS011;63666;52.284;20.890;2024-03-25T10:13:50;5.70;;;3.20;;
41141;SDS011;63666;52.284;20.890;2024-03-25T10:15:34;6.00;;;3.00;;
41141;SDS011;63666;52.284;20.890;2024-03-25T10:17:18;5.40;;;3.00;;
41141;SDS011;63666;52.284;20.890;2024-03-25T10:19:02;5.10;;;3.10;;
41141;SDS011;63666;52.284;20.890;2024-03-25T10:20:50;5.80;;;3.10;;
41141;SDS011;63666;52.284;20.890;2024-03-25T10:22:42;6.40;;;3.00;;
41141;SDS011;63666;52.284;20.890;2024-03-25T10:24:27;5.70;;;3.20;;
41141;SDS011;63666;52.284;20.890;2024-03-25T10:26:30;6.10;;;2.80;;
41141;SDS011;63666;52.284;20.890;2024-03-25T10:28:16;5.30;;;3.00;;
41141;SDS011;63666;52.284;20.890;2024-03-25T10:30:00;5.50;;;3.00;;
41141;SDS011;63666;52.284;20.890;2024-03-25T10:31:45;5.60;;;3.10;;
41141;SDS011;63666;52.284;20.890;2024-03-25T10:33:29;5.30;;;2.90;;